Altus, Oklahoma
Current Conditions -  °F | °C
As of 1:58 AM on Tuesday 21 Oct 2014 (Local Time) from KLTS Reporting Station
Clear Clear  
Wind Chill: 58°   Ceiling: Unl
Heat Index: 58°   Visibility: 10mi
Dew Point: 57°   Wind: 5mph
Humidity: 94%   Direction: 90°E
Pressure: 30.05"   Gusts: NA
Location:  34.64°N, 99.33°W
Report Text: KLTS 210658Z AUTO 09004KT 10SM CLR 15/14 A3005 RMK AO2 SLP165 T01470138 $
Loading
Personal Weather Stations






























Interactive Weather Map New forecast layout! Learn more

10-Day Weather Forecast

Advertisements
Track Severe Weather on mobile